Saint Peter Port, United Kingdom
Current Conditions -  °F | °C
As of 7:20 PM on Tuesday 21 Oct 2014 (Local Time) from EGJB Reporting Station
Scattered Clouds Scattered Clouds  
Wind Chill: 55°   Ceiling: Unl
Heat Index: 55°   Visibility: 6mi
Dew Point: 45°   Wind: 23mph
Humidity: 67%   Direction: 300°WNW
Pressure: 30.18"   Gusts: 36mph
Location:  49.46°N, 2.54°W
Report Text: EGJB 211820Z 30020G31KT 9999 SCT032 13/07 Q1022
Loading
Personal Weather Stations






























Interactive Weather Map New forecast layout! Learn more

10-Day Weather Forecast

Advertisements
Track Severe Weather on mobile